Terminal Aerodrome Forecast
Issued by NWS

Home | Current Version | Previous Version | Text Only | Print | Product List | Glossary On
Versions: 1 2 3 4 5 6 7 8 9 10 11 12 13 14 15 16 17 18 19 20 21
493
FTUS43 KICT 281739
TAFCNU
TAF
KCNU 281739Z 2818/2918 25012KT P6SM SCT025
     FM290000 VRB05KT P6SM SKC
     FM290800 18005KT P6SM SCT015
      TEMPO 2910/2912 4SM BR BKN015
     FM291200 19007KT 5SM BR BKN015
     FM291530 19007KT P6SM SCT020=

USA.gov is the U.S. government's official web portal to all federal, state and local government web resources and services.